createdAt,value
2017-07-30T00:02:03.155Z,57.3
2017-07-30T00:07:03.699Z,57.3
2017-07-30T00:12:03.938Z,57.4
2017-07-30T00:17:03.968Z,57.4
2017-07-30T00:22:03.624Z,57.2
2017-07-30T00:27:03.810Z,57.2
2017-07-30T00:32:03.924Z,57.2
2017-07-30T00:37:03.337Z,57.2
2017-07-30T00:42:03.386Z,57.1
2017-07-30T00:47:03.495Z,57.2
2017-07-30T00:52:03.678Z,57.2
2017-07-30T00:57:03.870Z,57.2
2017-07-30T01:02:03.038Z,57.4
2017-07-30T01:07:03.874Z,57.3
2017-07-30T01:12:03.245Z,57.3
2017-07-30T01:17:03.736Z,57.3
2017-07-30T01:22:03.570Z,57.4
2017-07-30T01:27:03.706Z,57.3
2017-07-30T01:32:03.924Z,57.3
2017-07-30T01:37:03.755Z,57.2
2017-07-30T01:42:03.916Z,57.3
2017-07-30T01:47:03.123Z,57.3
2017-07-30T01:52:03.725Z,57.2
2017-07-30T01:57:03.842Z,57.2
2017-07-30T02:02:04.020Z,57.3
2017-07-30T02:07:03.358Z,57.2
2017-07-30T02:12:03.796Z,57.3
2017-07-30T02:17:03.320Z,57.3
2017-07-30T02:22:03.545Z,57.2
2017-07-30T02:27:03.682Z,57.2
2017-07-30T02:32:03.841Z,57.2
2017-07-30T02:37:03.915Z,57.2
2017-07-30T02:42:03.209Z,57.2
2017-07-30T02:47:03.672Z,57.2
2017-07-30T02:52:03.001Z,57.2
2017-07-30T02:57:03.350Z,57.1
2017-07-30T03:02:04.069Z,57.1
2017-07-30T03:07:03.295Z,57.2
2017-07-30T03:12:03.739Z,57.2
2017-07-30T03:17:08.296Z,57.2
2017-07-30T03:22:03.605Z,57.2
2017-07-30T03:27:03.151Z,57.2
2017-07-30T03:32:23.832Z,57.3
2017-07-30T03:37:03.978Z,57.4
2017-07-30T03:42:03.381Z,57.4
2017-07-30T03:47:23.543Z,57.4
2017-07-30T03:52:03.337Z,57.3
2017-07-30T03:57:03.923Z,57.3
2017-07-30T04:02:28.742Z,57.2
2017-07-30T04:07:03.523Z,57.9
2017-07-30T04:12:03.977Z,57.3
2017-07-30T04:22:03.855Z,57.2
2017-07-30T04:27:03.326Z,57.2
2017-07-30T04:37:03.151Z,57.2
2017-07-30T04:42:03.492Z,57.0
2017-07-30T04:47:22.251Z,57.0
2017-07-30T04:52:03.249Z,57.0
2017-07-30T04:57:03.696Z,57.0
2017-07-30T05:02:23.676Z,56.6
2017-07-30T05:07:03.761Z,56.0
2017-07-30T05:12:03.254Z,56.0
2017-07-30T05:17:25.210Z,56.1
2017-07-30T05:22:03.177Z,56.1
2017-07-30T05:27:03.654Z,56.1
2017-07-30T05:32:23.935Z,56.0
2017-07-30T05:37:03.620Z,55.9
2017-07-30T05:42:03.912Z,55.7
2017-07-30T05:47:24.065Z,55.9
2017-07-30T05:52:03.865Z,56.0
2017-07-30T05:57:03.338Z,55.9
2017-07-30T06:02:09.680Z,56.0
2017-07-30T06:07:03.502Z,56.0
2017-07-30T06:12:03.987Z,56.0
2017-07-30T06:17:04.895Z,56.0
2017-07-30T06:22:03.083Z,56.1
2017-07-30T06:27:03.534Z,56.1
2017-07-30T06:32:24.231Z,56.2
2017-07-30T06:37:03.614Z,56.1
2017-07-30T06:42:03.080Z,56.3
2017-07-30T06:47:24.018Z,56.3
2017-07-30T06:52:03.552Z,56.9
2017-07-30T06:57:03.044Z,56.8
2017-07-30T07:02:21.589Z,56.2
2017-07-30T07:07:03.255Z,56.4
2017-07-30T07:12:03.755Z,56.4
2017-07-30T07:17:28.792Z,56.2
2017-07-30T07:22:03.772Z,56.7
2017-07-30T07:27:03.209Z,56.6
2017-07-30T07:32:27.646Z,56.8
2017-07-30T07:37:03.609Z,56.8
2017-07-30T07:42:03.844Z,57.4
2017-07-30T07:47:33.666Z,57.6
2017-07-30T07:52:03.224Z,57.6
2017-07-30T07:57:03.737Z,57.7
2017-07-30T08:02:27.260Z,57.6
2017-07-30T08:07:03.638Z,58.1
2017-07-30T08:12:03.139Z,58.0
2017-07-30T08:22:03.863Z,58.1
2017-07-30T08:27:03.242Z,58.3
2017-07-30T08:32:33.537Z,58.3
2017-07-30T08:37:03.580Z,58.2
2017-07-30T08:42:02.993Z,58.0
2017-07-30T08:52:03.665Z,58.5
2017-07-30T08:57:03.025Z,58.5
2017-07-30T09:02:23.736Z,58.8
2017-07-30T09:07:03.610Z,58.4
2017-07-30T09:12:03.141Z,58.4
2017-07-30T09:17:05.697Z,58.1
2017-07-30T09:22:03.220Z,57.7
2017-07-30T09:27:03.775Z,57.7
2017-07-30T09:37:03.197Z,57.4
2017-07-30T09:42:03.638Z,57.7
2017-07-30T09:47:24.715Z,58.1
2017-07-30T09:52:03.445Z,58.2
2017-07-30T09:57:03.098Z,58.2
2017-07-30T10:02:28.211Z,57.9
2017-07-30T10:07:03.370Z,57.8
2017-07-30T10:12:03.913Z,58.1
2017-07-30T10:17:35.826Z,57.7
2017-07-30T10:22:03.554Z,57.8
2017-07-30T10:27:03.917Z,57.9
2017-07-30T10:32:28.089Z,57.9
2017-07-30T10:37:03.814Z,57.9
2017-07-30T10:42:03.281Z,57.6
2017-07-30T10:47:23.670Z,57.7
2017-07-30T10:52:03.796Z,57.8
2017-07-30T10:57:03.226Z,57.3
2017-07-30T11:02:23.962Z,56.8
2017-07-30T11:07:03.857Z,57.0
2017-07-30T11:12:03.537Z,57.2
2017-07-30T11:17:22.364Z,57.2
2017-07-30T11:22:03.592Z,58.0
2017-07-30T11:27:03.976Z,57.5
2017-07-30T11:32:28.811Z,57.6
2017-07-30T11:37:03.582Z,57.3
2017-07-30T11:42:03.929Z,58.3
2017-07-30T11:47:26.943Z,58.3
2017-07-30T11:52:03.479Z,58.3
2017-07-30T11:57:03.842Z,58.3
2017-07-30T12:02:21.590Z,57.3
2017-07-30T12:07:03.232Z,57.3
2017-07-30T12:12:03.859Z,56.0
2017-07-30T12:17:21.109Z,56.0
2017-07-30T12:22:03.259Z,56.5
2017-07-30T12:27:03.784Z,56.5
2017-07-30T12:37:03.113Z,55.3
2017-07-30T12:42:03.634Z,58.8
2017-07-30T12:47:28.110Z,54.9
2017-07-30T12:52:03.874Z,54.9
2017-07-30T12:57:03.433Z,55.7
2017-07-30T13:02:28.614Z,55.1
2017-07-30T13:07:03.725Z,55.1
2017-07-30T13:12:03.331Z,56.8
2017-07-30T13:17:29.138Z,56.7
2017-07-30T13:22:03.606Z,56.6
2017-07-30T13:27:03.223Z,55.9
2017-07-30T13:32:24.901Z,54.4
2017-07-30T13:37:03.808Z,54.5
2017-07-30T13:42:03.131Z,55.0
2017-07-30T13:47:28.581Z,55.0
2017-07-30T13:52:03.696Z,54.3
2017-07-30T13:57:03.154Z,53.6
2017-07-30T14:02:09.840Z,53.4
2017-07-30T14:07:03.336Z,53.4
2017-07-30T14:12:03.731Z,53.8
2017-07-30T14:17:18.950Z,53.7
2017-07-30T14:22:03.384Z,53.5
2017-07-30T14:27:03.796Z,53.3
2017-07-30T14:32:19.114Z,54.2
2017-07-30T14:37:03.070Z,54.2
2017-07-30T14:42:03.590Z,53.9
2017-07-30T14:47:24.612Z,53.5
2017-07-30T14:52:03.089Z,53.9
2017-07-30T14:57:03.567Z,53.8
2017-07-30T15:02:24.237Z,52.5
2017-07-30T15:07:03.089Z,51.3
2017-07-30T15:12:03.715Z,51.3
2017-07-30T15:17:21.471Z,50.2
2017-07-30T15:22:03.278Z,45.8
2017-07-30T15:27:03.661Z,45.2
2017-07-30T15:32:22.559Z,39.8
2017-07-30T15:37:03.189Z,39.8
2017-07-30T15:42:03.596Z,39.0
2017-07-30T15:47:20.344Z,39.0
2017-07-30T15:52:03.569Z,39.4
2017-07-30T15:57:03.784Z,39.1
2017-07-30T16:07:03.648Z,47.2
2017-07-30T16:12:04.030Z,47.2
2017-07-30T16:17:20.767Z,43.2
2017-07-30T16:22:04.843Z,40.3
2017-07-30T16:27:03.804Z,40.3
2017-07-30T16:37:03.768Z,41.5
2017-07-30T16:42:03.080Z,41.4
2017-07-30T16:47:18.082Z,41.6
2017-07-30T16:52:03.845Z,41.7
2017-07-30T16:57:03.256Z,41.2
2017-07-30T17:02:17.417Z,41.6
2017-07-30T17:07:03.481Z,42.2
2017-07-30T17:12:03.207Z,41.9
2017-07-30T17:17:20.459Z,41.9
2017-07-30T17:22:03.557Z,46.1
2017-07-30T17:27:04.001Z,46.1
2017-07-30T17:32:20.642Z,47.2
2017-07-30T17:37:03.557Z,47.5
2017-07-30T17:42:03.888Z,48.4
2017-07-30T17:47:25.178Z,53.2
2017-07-30T17:52:03.544Z,56.2
2017-07-30T17:57:03.832Z,56.6
2017-07-30T18:02:26.922Z,57.3
2017-07-30T18:07:03.554Z,56.9
2017-07-30T18:12:03.966Z,56.5
2017-07-30T18:17:27.908Z,56.5
2017-07-30T18:22:03.505Z,56.5
2017-07-30T18:27:03.851Z,55.5
2017-07-30T18:32:24.385Z,55.5
2017-07-30T18:37:03.093Z,54.9
2017-07-30T18:42:03.564Z,55.3
2017-07-30T18:47:25.306Z,55.3
2017-07-30T18:52:03.383Z,55.7
2017-07-30T18:57:03.730Z,55.7
2017-07-30T19:02:24.500Z,56.4
2017-07-30T19:07:03.821Z,56.5
2017-07-30T19:12:03.659Z,56.4
2017-07-30T19:17:22.404Z,56.5
2017-07-30T19:22:03.209Z,56.5
2017-07-30T19:27:03.562Z,56.5
2017-07-30T19:32:31.533Z,56.5
2017-07-30T19:37:03.532Z,56.6
2017-07-30T19:42:03.935Z,56.8
2017-07-30T19:47:14.234Z,56.5
2017-07-30T19:52:03.187Z,56.6
2017-07-30T19:57:03.494Z,56.5
2017-07-30T20:02:08.389Z,56.6
2017-07-30T20:07:03.341Z,56.6
2017-07-30T20:12:03.879Z,56.6
2017-07-30T20:17:03.486Z,56.5
2017-07-30T20:22:03.661Z,56.5
2017-07-30T20:27:03.983Z,56.8
2017-07-30T20:32:03.733Z,56.6
2017-07-30T20:37:03.603Z,56.6
2017-07-30T20:42:03.034Z,56.5
2017-07-30T20:47:03.332Z,56.4
2017-07-30T20:52:03.654Z,56.5
2017-07-30T20:57:03.075Z,56.6
2017-07-30T21:02:05.673Z,56.5
2017-07-30T21:07:04.792Z,56.6
2017-07-30T21:12:03.500Z,56.4
2017-07-30T21:17:04.315Z,56.6
2017-07-30T21:22:03.693Z,56.5
2017-07-30T21:27:04.022Z,56.4
2017-07-30T21:32:04.556Z,56.5
2017-07-30T21:37:03.580Z,56.5
2017-07-30T21:42:03.879Z,56.4
2017-07-30T21:47:05.224Z,56.3
2017-07-30T21:52:03.153Z,56.3
2017-07-30T21:57:03.465Z,56.2
2017-07-30T22:02:06.011Z,56.3
2017-07-30T22:07:03.596Z,56.3
2017-07-30T22:12:03.850Z,56.4
2017-07-30T22:22:03.858Z,56.8
2017-07-30T22:27:04.320Z,56.4
2017-07-30T22:32:03.625Z,56.3
2017-07-30T22:37:03.307Z,56.3
2017-07-30T22:42:03.748Z,56.3
2017-07-30T22:47:03.713Z,56.2
2017-07-30T22:52:03.782Z,56.2
2017-07-30T22:57:03.225Z,56.3
2017-07-30T23:02:03.868Z,56.4
2017-07-30T23:07:03.497Z,56.3
2017-07-30T23:12:03.362Z,56.3
2017-07-30T23:17:04.020Z,56.2
2017-07-30T23:22:03.255Z,56.2
2017-07-30T23:27:03.161Z,56.4
2017-07-30T23:32:03.862Z,56.3
2017-07-30T23:37:03.305Z,56.2
2017-07-30T23:42:03.050Z,56.5
2017-07-30T23:47:03.745Z,56.4
2017-07-30T23:52:03.639Z,56.2
2017-07-30T23:57:03.323Z,56.2
